Time;durP1;ratioP1;P1;durP2;ratioP2;P2;SDS_P1;SDS_P2;PMS_P1;PMS_P2;Temp;Humidity;BMP_temperature;BMP_pressure;BME280_temperature;BME280_humidity;BME280_pressure;Samples;Min_cycle;Max_cycle;Signal;HPM_P1;HPM_P2
2022/10/31 00:01:32;;;;;;;8.70;6.00;;;;;;;8.01;100.00;101382.02;105467;1264;59242;-71
2022/10/31 00:04:00;;;;;;;9.40;6.50;;;;;;;7.95;100.00;101384.24;105362;1267;73177;-70
2022/10/31 00:06:27;;;;;;;8.20;5.80;;;;;;;7.90;100.00;101384.85;105462;1263;61671;-71
2022/10/31 00:09:00;;;;;;;9.70;6.40;;;;;;;7.85;100.00;101383.70;105497;1259;70718;-71
2022/10/31 00:11:28;;;;;;;10.00;6.20;;;;;;;7.84;100.00;101382.23;105471;1258;72882;-70
2022/10/31 00:13:58;;;;;;;9.60;6.20;;;;;;;7.82;100.00;101382.85;105423;1272;63414;-71
2022/10/31 00:16:27;;;;;;;9.90;6.60;;;;;;;7.81;100.00;101385.30;105496;1272;60524;-71
2022/10/31 00:19:04;;;;;;;11.20;6.70;;;;;;;7.80;100.00;101388.13;105547;1260;62415;-71
2022/10/31 00:21:31;;;;;;;11.60;6.70;;;;;;;7.76;100.00;101388.84;105536;1258;60735;-71
2022/10/31 00:24:00;;;;;;;10.80;6.80;;;;;;;7.76;100.00;101387.64;105497;1259;70069;-71
2022/10/31 00:26:29;;;;;;;12.30;7.00;;;;;;;7.75;100.00;101388.36;105443;1266;62288;-71
2022/10/31 00:28:59;;;;;;;11.10;6.90;;;;;;;7.76;100.00;101386.25;105457;1256;58873;-72
2022/10/31 00:31:27;;;;;;;11.50;6.70;;;;;;;7.80;100.00;101386.40;105539;1259;59478;-70
2022/10/31 00:33:55;;;;;;;11.00;6.90;;;;;;;7.84;100.00;101383.45;105437;1263;71562;-70
2022/10/31 00:36:22;;;;;;;11.70;6.40;;;;;;;7.88;100.00;101386.70;105464;1267;71117;-72
2022/10/31 00:38:50;;;;;;;8.90;6.30;;;;;;;7.92;100.00;101385.27;105413;1261;69816;-72
2022/10/31 00:41:17;;;;;;;10.50;6.40;;;;;;;8.01;100.00;101382.91;105444;1270;62742;-73
2022/10/31 00:43:45;;;;;;;9.10;6.40;;;;;;;8.07;100.00;101383.48;105519;1267;58865;-71
2022/10/31 00:46:14;;;;;;;9.40;6.10;;;;;;;8.09;100.00;101379.38;105537;1263;59033;-70
2022/10/31 00:48:42;;;;;;;9.50;6.00;;;;;;;8.10;100.00;101377.77;105481;1267;74358;-70
2022/10/31 00:51:10;;;;;;;9.80;6.70;;;;;;;8.08;100.00;101377.20;105600;1260;73365;-70
2022/10/31 00:53:39;;;;;;;8.30;6.00;;;;;;;8.05;100.00;101379.77;105622;1263;60227;-70
2022/10/31 00:56:07;;;;;;;11.20;6.30;;;;;;;7.97;100.00;101377.36;105469;1259;74079;-71
2022/10/31 00:58:34;;;;;;;9.70;6.40;;;;;;;7.92;100.00;101376.77;105463;1267;62919;-71
2022/10/31 01:01:03;;;;;;;9.70;6.40;;;;;;;7.88;100.00;101379.77;105543;1272;58262;-71
2022/10/31 01:03:33;;;;;;;10.20;6.60;;;;;;;7.85;100.00;101376.58;105450;1269;73456;-69
2022/10/31 01:06:05;;;;;;;11.70;6.80;;;;;;;7.81;100.00;101376.27;105461;1263;71648;-70
2022/10/31 01:08:35;;;;;;;11.80;7.00;;;;;;;7.76;100.00;101379.66;105465;1264;71467;-72
2022/10/31 01:11:21;;;;;;;12.80;6.60;;;;;;;7.73;100.00;101377.77;105379;1272;73396;-70
2022/10/31 01:13:52;;;;;;;11.80;7.00;;;;;;;7.71;100.00;101376.61;105361;1272;62258;-70
2022/10/31 01:16:24;;;;;;;10.20;6.80;;;;;;;7.71;100.00;101371.95;105401;1264;61794;-70
2022/10/31 01:18:52;;;;;;;10.50;6.30;;;;;;;7.63;100.00;101371.45;105326;1260;73973;-70
2022/10/31 01:21:26;;;;;;;11.90;6.90;;;;;;;7.56;100.00;101364.86;105435;1270;61254;-70
2022/10/31 01:23:56;;;;;;;11.40;6.40;;;;;;;7.50;100.00;101361.04;105426;1267;70759;-70
2022/10/31 01:26:27;;;;;;;11.00;6.60;;;;;;;7.44;100.00;101362.52;105433;1266;63705;-71
2022/10/31 01:28:58;;;;;;;11.60;7.10;;;;;;;7.39;100.00;101362.61;105458;1265;61896;-70
2022/10/31 01:31:32;;;;;;;11.90;7.00;;;;;;;7.35;100.00;101360.56;105443;1272;57528;-71
2022/10/31 01:34:00;;;;;;;10.80;6.90;;;;;;;7.29;100.00;101360.10;105351;1263;73060;-70
2022/10/31 01:36:31;;;;;;;10.80;6.20;;;;;;;7.26;100.00;101357.34;105440;1267;61469;-71
2022/10/31 01:39:03;;;;;;;10.90;7.60;;;;;;;7.21;100.00;101355.16;105414;1260;69614;-71
2022/10/31 01:41:35;;;;;;;9.20;5.90;;;;;;;7.16;100.00;101357.10;105502;1271;63618;-70
2022/10/31 01:44:16;;;;;;;11.00;6.20;;;;;;;7.15;100.00;101350.05;105543;1267;63740;-68
2022/10/31 01:46:58;;;;;;;9.90;7.20;;;;;;;7.11;100.00;101351.98;105582;1272;57394;-70
2022/10/31 01:49:42;;;;;;;10.10;6.70;;;;;;;7.05;100.00;101345.33;105442;1263;63100;-69
2022/10/31 01:52:31;;;;;;;9.50;7.00;;;;;;;7.05;100.00;101347.77;105497;1269;61671;-69
2022/10/31 01:55:24;;;;;;;9.60;6.90;;;;;;;7.04;100.00;101359.22;105490;1271;70176;-69
2022/10/31 01:58:05;;;;;;;13.80;6.90;;;;;;;6.98;100.00;101367.81;105431;1272;63542;-70
2022/10/31 02:00:33;;;;;;;11.20;6.70;;;;;;;6.98;100.00;101374.07;105374;1265;63320;-70
2022/10/31 02:03:00;;;;;;;13.30;6.90;;;;;;;6.98;100.00;101375.63;105536;1259;59087;-70
2022/10/31 02:05:30;;;;;;;15.00;7.90;;;;;;;6.95;100.00;101370.41;105428;1270;63273;-69
2022/10/31 02:08:04;;;;;;;9.40;6.20;;;;;;;6.98;100.00;101376.32;105888;1270;61482;-70
2022/10/31 02:10:35;;;;;;;12.00;6.60;;;;;;;7.07;100.00;101379.52;105424;1262;70326;-69
2022/10/31 02:13:07;;;;;;;11.10;7.30;;;;;;;7.14;100.00;101379.73;105403;1259;73359;-69
2022/10/31 02:15:39;;;;;;;16.40;7.70;;;;;;;7.22;100.00;101377.30;105367;1263;59321;-69
2022/10/31 02:18:08;;;;;;;13.90;7.80;;;;;;;7.38;100.00;101375.11;105222;1258;61140;-70
2022/10/31 02:21:15;;;;;;;13.50;7.10;;;;;;;7.50;100.00;101371.60;105492;1272;62556;-69
2022/10/31 02:23:48;;;;;;;12.70;7.40;;;;;;;7.57;100.00;101374.21;105313;1272;62501;-70
2022/10/31 02:26:37;;;;;;;19.60;7.30;;;;;;;7.63;100.00;101373.20;105546;1263;60172;-71
2022/10/31 02:29:50;;;;;;;9.40;6.20;;;;;;;7.72;100.00;101378.99;105600;1272;62426;-71
2022/10/31 02:32:50;;;;;;;9.40;6.30;;;;;;;7.82;100.00;101380.22;105568;1262;63928;-71
2022/10/31 02:35:46;;;;;;;9.50;6.40;;;;;;;7.76;100.00;101383.85;105578;1269;61489;-70
2022/10/31 02:38:38;;;;;;;11.70;7.30;;;;;;;7.77;100.00;101389.85;105667;1270;74231;-71
2022/10/31 02:41:43;;;;;;;11.90;7.50;;;;;;;7.80;100.00;101389.16;105601;1264;71562;-70
2022/10/31 02:44:29;;;;;;;10.70;7.50;;;;;;;7.87;100.00;101398.69;105596;1251;69179;-73
2022/10/31 02:47:12;;;;;;;11.50;7.60;;;;;;;7.94;100.00;101395.58;105664;1263;74087;-71
2022/10/31 02:50:11;;;;;;;12.00;7.40;;;;;;;8.00;100.00;101395.81;105577;1264;59101;-74
2022/10/31 02:52:38;;;;;;;13.80;7.30;;;;;;;8.11;100.00;101397.81;105719;1272;60365;-71
2022/10/31 02:55:24;;;;;;;14.70;8.90;;;;;;;8.17;100.00;101388.83;105618;1256;73768;-73
2022/10/31 02:58:16;;;;;;;19.10;8.50;;;;;;;8.18;100.00;101385.31;105673;1272;61617;-69
2022/10/31 03:01:31;;;;;;;15.90;9.20;;;;;;;8.21;100.00;101379.27;105588;1263;59241;-70
2022/10/31 03:04:17;;;;;;;14.80;9.20;;;;;;;8.30;100.00;101387.34;105580;1258;74785;-71
2022/10/31 03:07:23;;;;;;;17.00;10.90;;;;;;;8.38;100.00;101388.66;105623;1270;62761;-70
2022/10/31 03:10:27;;;;;;;21.30;11.40;;;;;;;8.51;100.00;101393.52;105432;1264;59062;-70
2022/10/31 03:13:21;;;;;;;17.20;9.10;;;;;;;8.67;100.00;101397.17;105658;1263;63007;-70
2022/10/31 03:15:57;;;;;;;13.60;7.00;;;;;;;8.77;100.00;101404.82;105581;1266;71091;-69
2022/10/31 03:18:40;;;;;;;13.90;8.90;;;;;;;8.87;100.00;101400.31;105595;1272;69156;-69
2022/10/31 03:21:20;;;;;;;17.10;10.50;;;;;;;8.79;100.00;101393.77;105550;1263;65397;-70
2022/10/31 03:23:52;;;;;;;14.70;8.80;;;;;;;8.71;100.00;101401.47;105574;1272;63318;-69
2022/10/31 03:26:22;;;;;;;18.80;10.40;;;;;;;8.62;100.00;101394.67;105574;1267;62051;-69
2022/10/31 03:29:02;;;;;;;15.80;9.10;;;;;;;8.54;100.00;101397.54;105531;1265;63266;-70
2022/10/31 03:31:36;;;;;;;20.80;11.90;;;;;;;8.52;100.00;101399.58;105600;1264;70121;-71
2022/10/31 03:34:08;;;;;;;15.70;9.90;;;;;;;8.47;100.00;101399.78;105724;1272;60821;-72
2022/10/31 03:36:39;;;;;;;17.50;10.10;;;;;;;8.53;100.00;101404.38;105425;1263;72230;-71
2022/10/31 03:39:12;;;;;;;20.10;11.90;;;;;;;8.55;100.00;101405.14;105563;1267;58173;-72
2022/10/31 03:41:46;;;;;;;23.60;12.20;;;;;;;8.57;100.00;101407.83;105592;1270;60370;-72
2022/10/31 03:44:20;;;;;;;21.40;12.00;;;;;;;8.56;100.00;101408.55;105463;1272;73377;-71
2022/10/31 03:46:54;;;;;;;20.60;12.40;;;;;;;8.55;100.00;101410.14;105587;1263;60970;-71
2022/10/31 03:49:22;;;;;;;21.00;12.20;;;;;;;8.52;100.00;101406.50;105592;1267;70799;-71
2022/10/31 03:52:15;;;;;;;22.50;13.30;;;;;;;8.57;100.00;101404.67;105563;1268;74243;-71
2022/10/31 03:55:17;;;;;;;19.30;10.70;;;;;;;8.55;100.00;101399.08;105591;1263;63348;-70
2022/10/31 03:58:34;;;;;;;23.00;11.60;;;;;;;8.49;100.00;101402.11;105581;1263;61197;-70
2022/10/31 04:01:04;;;;;;;19.50;11.30;;;;;;;8.39;100.00;101397.96;105526;1263;62341;-71
2022/10/31 04:03:37;;;;;;;20.90;12.10;;;;;;;8.33;100.00;101400.86;105660;1270;61430;-73
2022/10/31 04:06:11;;;;;;;21.90;11.90;;;;;;;8.24;100.00;101403.91;105666;1263;70433;-72
2022/10/31 04:08:46;;;;;;;20.00;12.90;;;;;;;8.15;100.00;101403.88;105732;1267;72745;-72
2022/10/31 04:11:21;;;;;;;26.40;13.20;;;;;;;8.07;100.00;101403.75;105329;1257;594712;-72
2022/10/31 04:13:58;;;;;;;23.90;13.40;;;;;;;8.01;100.00;101401.83;105737;1267;61346;-72
2022/10/31 04:16:27;;;;;;;23.30;13.00;;;;;;;7.96;100.00;101403.77;105729;1264;62694;-71
2022/10/31 04:18:56;;;;;;;22.60;13.60;;;;;;;7.94;100.00;101405.10;105804;1262;60836;-71
2022/10/31 04:21:29;;;;;;;25.80;14.50;;;;;;;7.92;100.00;101404.14;105668;1258;71104;-70
2022/10/31 04:23:57;;;;;;;24.80;14.10;;;;;;;8.00;100.00;101405.83;105646;1260;72451;-70
2022/10/31 04:26:26;;;;;;;22.90;14.40;;;;;;;8.03;100.00;101406.59;105727;1272;57866;-73
2022/10/31 04:28:54;;;;;;;25.40;14.70;;;;;;;8.03;100.00;101397.91;105716;1270;59384;-71
2022/10/31 04:31:22;;;;;;;24.70;13.00;;;;;;;7.97;100.00;101399.91;105747;1267;74631;-70
2022/10/31 04:33:49;;;;;;;25.60;14.60;;;;;;;7.87;100.00;101401.46;105760;1267;61371;-70
2022/10/31 04:36:17;;;;;;;24.30;13.80;;;;;;;7.74;100.00;101396.91;105639;1267;70564;-74
2022/10/31 04:38:45;;;;;;;27.00;14.40;;;;;;;7.66;100.00;101399.71;105511;1260;73291;-70
2022/10/31 04:41:27;;;;;;;25.20;13.90;;;;;;;7.53;100.00;101398.27;105862;1267;62578;-72
2022/10/31 04:44:08;;;;;;;28.70;17.80;;;;;;;7.42;100.00;101403.65;105657;1261;58685;-72
2022/10/31 04:46:35;;;;;;;27.10;15.40;;;;;;;7.31;100.00;101408.39;105720;1264;73562;-71
2022/10/31 04:49:03;;;;;;;25.90;14.60;;;;;;;7.23;100.00;101412.58;105596;1264;61516;-70
2022/10/31 04:51:30;;;;;;;26.10;15.50;;;;;;;7.19;100.00;101414.13;105645;1264;62031;-72
2022/10/31 04:53:58;;;;;;;28.70;15.70;;;;;;;7.12;100.00;101413.92;105642;1260;73384;-73
2022/10/31 04:56:28;;;;;;;24.80;14.70;;;;;;;7.06;100.00;101410.77;105678;1264;63503;-74
2022/10/31 04:58:58;;;;;;;31.70;17.20;;;;;;;7.00;100.00;101420.20;105663;1272;57534;-72
2022/10/31 05:01:27;;;;;;;24.90;14.40;;;;;;;6.94;100.00;101424.30;105654;1261;73491;-74
2022/10/31 05:03:55;;;;;;;24.30;15.20;;;;;;;6.94;100.00;101426.58;105755;1263;62339;-74
2022/10/31 05:06:23;;;;;;;24.90;15.00;;;;;;;6.91;100.00;101430.83;105712;1270;59316;-72
2022/10/31 05:08:50;;;;;;;26.30;14.50;;;;;;;6.90;100.00;101427.40;105696;1260;72557;-77
2022/10/31 05:11:18;;;;;;;29.90;15.80;;;;;;;6.95;100.00;101426.54;105738;1263;64332;-81
2022/10/31 05:13:45;;;;;;;27.80;15.70;;;;;;;6.97;100.00;101431.61;105741;1265;57469;-75
2022/10/31 05:16:12;;;;;;;32.20;17.20;;;;;;;7.06;100.00;101432.42;106051;1263;62310;-74
2022/10/31 05:18:39;;;;;;;28.40;16.00;;;;;;;7.12;100.00;101432.79;105704;1267;61348;-74
2022/10/31 05:21:50;;;;;;;29.90;16.00;;;;;;;7.22;100.00;101437.40;105585;1264;60300;-75
2022/10/31 05:24:21;;;;;;;24.30;16.20;;;;;;;7.28;100.00;101440.08;105641;1265;72157;-74
2022/10/31 05:26:49;;;;;;;32.60;16.40;;;;;;;7.34;100.00;101443.91;105725;1263;63221;-75
2022/10/31 05:29:17;;;;;;;24.70;15.00;;;;;;;7.40;100.00;101443.98;105677;1272;57500;-74
2022/10/31 05:31:44;;;;;;;23.90;15.60;;;;;;;7.49;100.00;101449.60;105594;1263;73740;-73
2022/10/31 05:34:23;;;;;;;24.60;15.50;;;;;;;7.56;100.00;101456.40;105740;1270;61462;-74
2022/10/31 05:37:10;;;;;;;25.50;15.70;;;;;;;7.63;100.00;101457.11;105665;1264;70726;-75
2022/10/31 05:39:37;;;;;;;27.20;15.80;;;;;;;7.73;100.00;101461.30;105731;1267;63712;-75
2022/10/31 05:42:08;;;;;;;24.60;15.30;;;;;;;7.86;100.00;101466.02;105795;1264;61582;-76
2022/10/31 05:44:36;;;;;;;30.70;16.80;;;;;;;8.01;100.00;101456.63;105800;1267;61904;-76
2022/10/31 05:47:08;;;;;;;;;;;;;;;8.12;100.00;101463.52;105797;1258;73411;-74
2022/10/31 05:49:54;;;;;;;26.90;14.50;;;;;;;8.10;100.00;101463.30;105762;1264;62197;-73
2022/10/31 05:52:40;;;;;;;26.90;14.20;;;;;;;8.11;100.00;101466.71;105839;1267;60117;-76
2022/10/31 05:55:17;;;;;;;26.80;15.20;;;;;;;8.15;100.00;101465.48;105730;1258;73927;-74
2022/10/31 05:57:57;;;;;;;31.70;15.80;;;;;;;8.21;100.00;101466.91;105638;1271;58281;-75
2022/10/31 06:00:27;;;;;;;26.30;14.80;;;;;;;8.28;100.00;101466.73;105798;1267;62088;-75
2022/10/31 06:03:04;;;;;;;24.90;15.40;;;;;;;8.34;100.00;101465.02;105774;1262;62783;-76
2022/10/31 06:05:41;;;;;;;24.20;14.60;;;;;;;8.40;100.00;101473.59;105696;1264;72674;-76
2022/10/31 06:08:09;;;;;;;31.80;16.20;;;;;;;8.43;100.00;101473.96;105583;1264;70373;-75
2022/10/31 06:10:38;;;;;;;38.50;15.90;;;;;;;8.50;100.00;101480.91;105741;1264;73492;-75
2022/10/31 06:13:06;;;;;;;30.70;16.00;;;;;;;8.55;100.00;101478.73;105742;1258;59143;-74
2022/10/31 06:15:42;;;;;;;26.00;13.90;;;;;;;8.58;100.00;101478.04;106022;1268;58196;-76
2022/10/31 06:18:09;;;;;;;38.70;18.40;;;;;;;8.51;100.00;101471.63;106066;1264;73468;-73
2022/10/31 06:20:45;;;;;;;42.30;18.00;;;;;;;8.51;100.00;101482.04;106016;1264;71959;-76
2022/10/31 06:23:12;;;;;;;36.20;16.10;;;;;;;8.60;100.00;101477.95;105635;1264;71318;-76
2022/10/31 06:25:41;;;;;;;36.60;16.50;;;;;;;8.62;100.00;101478.55;105770;1263;63404;-75
2022/10/31 06:28:08;;;;;;;28.20;15.90;;;;;;;8.68;100.00;101483.63;105751;1264;63794;-75
2022/10/31 06:30:47;;;;;;;22.40;13.30;;;;;;;8.67;100.00;101485.56;105832;1262;57379;-74
2022/10/31 06:33:15;;;;;;;21.60;14.00;;;;;;;8.70;100.00;101488.34;105729;1264;63209;-74
2022/10/31 06:35:49;;;;;;;29.50;14.00;;;;;;;8.62;100.00;101486.51;105712;1272;61798;-74
2022/10/31 06:38:16;;;;;;;20.70;13.00;;;;;;;8.62;100.00;101492.43;105766;1264;70688;-75
2022/10/31 06:40:44;;;;;;;47.40;14.40;;;;;;;8.58;100.00;101490.91;105589;1258;64345;-75
2022/10/31 06:43:23;;;;;;;40.00;16.00;;;;;;;8.56;100.00;101491.71;105698;1263;59132;-76
2022/10/31 06:46:03;;;;;;;72.10;17.80;;;;;;;8.55;100.00;101496.30;106082;1267;57474;-76
2022/10/31 06:48:35;;;;;;;57.40;19.60;;;;;;;8.59;100.00;101496.93;105944;1258;73407;-74
2022/10/31 06:51:32;;;;;;;49.60;17.90;;;;;;;8.75;100.00;101493.66;105806;1272;71182;-76
2022/10/31 06:53:59;;;;;;;45.70;19.40;;;;;;;8.90;100.00;101491.14;105645;1269;59895;-76
2022/10/31 06:56:26;;;;;;;41.40;18.00;;;;;;;9.04;100.00;101491.98;105588;1270;74046;-74
2022/10/31 06:58:55;;;;;;;33.20;18.30;;;;;;;9.19;100.00;101494.63;105831;1260;61435;-74
2022/10/31 07:01:43;;;;;;;33.80;18.80;;;;;;;9.27;100.00;101493.30;105838;1267;60714;-75
2022/10/31 07:04:12;;;;;;;31.40;17.70;;;;;;;9.25;100.00;101496.53;105805;1263;63188;-76
2022/10/31 07:06:40;;;;;;;32.90;18.00;;;;;;;9.36;100.00;101498.21;105722;1260;61117;-76
2022/10/31 07:09:08;;;;;;;32.50;17.30;;;;;;;9.49;100.00;101501.50;105645;1264;59883;-73
2022/10/31 07:11:36;;;;;;;31.60;16.10;;;;;;;9.58;100.00;101503.09;105849;1264;74193;-74
2022/10/31 07:14:03;;;;;;;39.40;19.80;;;;;;;9.63;100.00;101506.16;105744;1272;58925;-74
2022/10/31 07:16:30;;;;;;;38.40;19.60;;;;;;;9.63;100.00;101506.98;105714;1264;61396;-74
2022/10/31 07:18:58;;;;;;;42.10;21.60;;;;;;;9.57;100.00;101505.60;105720;1264;74365;-74
2022/10/31 07:21:25;;;;;;;39.70;22.40;;;;;;;9.52;100.00;101503.11;105704;1265;61708;-75
2022/10/31 07:23:53;;;;;;;45.10;21.70;;;;;;;9.66;100.00;101499.36;105777;1263;70687;-74
2022/10/31 07:27:01;;;;;;;38.20;19.40;;;;;;;9.86;100.00;101499.79;105680;1272;63956;-76
2022/10/31 07:29:29;;;;;;;36.10;18.50;;;;;;;10.04;100.00;101499.25;105679;1263;63156;-75
2022/10/31 07:31:56;;;;;;;30.00;16.00;;;;;;;10.17;100.00;101501.29;105599;1272;58205;-74
2022/10/31 07:34:25;;;;;;;36.80;18.00;;;;;;;10.28;100.00;101499.66;105731;1264;73400;-76
2022/10/31 07:37:13;;;;;;;36.20;18.70;;;;;;;10.38;100.00;101500.48;105744;1264;61802;-74
2022/10/31 07:39:40;;;;;;;35.20;17.70;;;;;;;10.36;100.00;101505.10;105539;1263;68840;-74
2022/10/31 07:42:07;;;;;;;28.10;16.40;;;;;;;10.50;100.00;101510.19;105709;1263;74061;-74
2022/10/31 07:44:35;;;;;;;29.90;15.50;;;;;;;10.51;100.00;101516.59;105535;1270;60140;-75
2022/10/31 07:47:52;;;;;;;21.50;13.40;;;;;;;10.51;100.00;101517.95;105612;1267;61620;-75
2022/10/31 07:51:07;;;;;;;26.80;16.30;;;;;;;10.46;100.00;101520.00;105569;1263;74481;-75
2022/10/31 07:54:33;;;;;;;23.70;15.30;;;;;;;10.51;100.00;101515.91;105422;1274;72437;-76
2022/10/31 07:57:01;;;;;;;33.20;18.70;;;;;;;10.58;100.00;101513.21;105515;1259;69192;-77
2022/10/31 07:59:29;;;;;;;30.60;18.70;;;;;;;10.65;100.00;101516.09;105697;1265;73293;-76
2022/10/31 08:01:56;;;;;;;34.50;21.30;;;;;;;10.75;100.00;101516.71;105649;1268;59102;-74
2022/10/31 08:04:42;;;;;;;31.30;17.60;;;;;;;10.79;100.00;101518.20;105750;1270;59506;-74
2022/10/31 08:07:29;;;;;;;25.50;14.80;;;;;;;11.01;100.00;101516.52;105835;1267;72581;-74
2022/10/31 08:09:59;;;;;;;21.30;12.60;;;;;;;11.36;99.70;101514.17;105792;1267;72355;-74
2022/10/31 08:12:30;;;;;;;21.20;13.10;;;;;;;11.73;97.91;101512.31;105706;1263;70130;-73
2022/10/31 08:14:57;;;;;;;18.00;11.00;;;;;;;12.06;94.94;101515.30;105651;1263;63029;-72
2022/10/31 08:17:25;;;;;;;18.90;11.30;;;;;;;12.31;92.50;101513.79;105564;1270;62449;-74
2022/10/31 08:19:57;;;;;;;21.20;13.00;;;;;;;12.48;90.68;101514.02;105872;1272;59019;-75
2022/10/31 08:22:32;;;;;;;23.70;11.50;;;;;;;12.61;89.85;101516.69;105705;1264;62800;-76
2022/10/31 08:25:01;;;;;;;22.50;12.70;;;;;;;12.73;88.93;101516.69;105700;1264;71237;-74
2022/10/31 08:27:29;;;;;;;19.70;12.10;;;;;;;12.78;88.34;101520.19;105772;1272;59485;-75
2022/10/31 08:29:59;;;;;;;20.70;12.10;;;;;;;12.93;87.54;101522.12;105683;1267;73117;-73
2022/10/31 08:32:28;;;;;;;22.10;13.20;;;;;;;13.07;86.42;101521.91;105739;1263;63960;-74
2022/10/31 08:35:40;;;;;;;22.10;12.70;;;;;;;13.18;86.29;101527.25;105670;1272;57518;-72
2022/10/31 08:38:12;;;;;;;18.90;12.40;;;;;;;13.22;86.12;101525.23;105760;1267;62199;-73
2022/10/31 08:40:40;;;;;;;21.40;12.50;;;;;;;13.16;86.09;101527.88;105736;1264;71912;-75
2022/10/31 08:43:14;;;;;;;19.00;12.90;;;;;;;13.21;86.54;101523.32;105663;1259;61937;-75
2022/10/31 08:45:43;;;;;;;20.20;11.90;;;;;;;13.30;86.13;101518.86;105678;1270;73223;-75
2022/10/31 08:48:16;;;;;;;22.70;12.40;;;;;;;13.42;84.75;101523.06;105748;1270;63435;-72
2022/10/31 08:50:45;;;;;;;17.50;11.80;;;;;;;13.47;84.11;101523.96;105795;1264;59050;-76
2022/10/31 08:53:16;;;;;;;18.70;11.90;;;;;;;13.53;84.12;101525.98;105702;1272;63849;-73
2022/10/31 08:55:46;;;;;;;21.20;12.40;;;;;;;13.57;83.01;101528.83;105635;1264;61100;-75
2022/10/31 08:58:24;;;;;;;20.10;12.40;;;;;;;13.67;82.74;101528.14;105790;1267;60252;-73
2022/10/31 09:00:56;;;;;;;17.10;10.20;;;;;;;13.65;82.71;101530.02;105741;1264;62619;-73
2022/10/31 09:03:26;;;;;;;17.50;11.90;;;;;;;13.74;82.73;101530.08;105880;1262;58992;-75
2022/10/31 09:06:01;;;;;;;19.70;12.70;;;;;;;13.74;82.13;101531.60;105665;1267;60294;-74
2022/10/31 09:08:33;;;;;;;14.50;9.90;;;;;;;13.93;83.11;101533.73;106232;1264;64309;-77
2022/10/31 09:11:01;;;;;;;18.00;12.50;;;;;;;14.03;81.49;101538.23;105636;1262;72082;-76
2022/10/31 09:14:28;;;;;;;17.90;12.60;;;;;;;13.77;80.76;101540.67;105223;1269;71268;-73
2022/10/31 09:17:14;;;;;;;18.30;11.80;;;;;;;13.77;80.03;101545.96;105320;1265;73206;-73
2022/10/31 09:19:53;;;;;;;15.00;10.70;;;;;;;13.67;80.28;101551.20;105655;1264;59596;-75
2022/10/31 09:22:26;;;;;;;15.20;11.30;;;;;;;13.71;78.80;101549.20;105728;1270;58119;-75
2022/10/31 09:24:54;;;;;;;17.90;10.90;;;;;;;13.67;78.52;101545.41;105888;1262;63209;-75
2022/10/31 09:27:22;;;;;;;15.90;10.30;;;;;;;13.73;77.75;101549.25;105785;1267;70615;-77
2022/10/31 09:29:49;;;;;;;20.50;11.40;;;;;;;13.69;77.04;101547.25;105847;1262;61951;-76
2022/10/31 09:32:18;;;;;;;17.10;10.10;;;;;;;13.69;77.00;101549.66;105799;1261;75107;-74
2022/10/31 09:34:46;;;;;;;15.60;10.90;;;;;;;13.55;76.50;101559.10;105812;1267;63533;-74
2022/10/31 09:37:20;;;;;;;18.10;10.70;;;;;;;13.48;76.80;101553.81;105865;1257;61243;-74
2022/10/31 09:39:47;;;;;;;16.00;10.30;;;;;;;13.49;76.90;101552.02;105846;1261;62817;-77
2022/10/31 09:43:02;;;;;;;17.10;10.90;;;;;;;13.57;76.11;101542.72;105751;1272;72288;-75
2022/10/31 09:45:41;;;;;;;17.30;10.30;;;;;;;13.53;76.07;101550.33;105880;1264;71062;-74
2022/10/31 09:49:16;;;;;;;16.60;10.20;;;;;;;13.47;75.86;101551.27;105720;1264;72110;-75
2022/10/31 09:52:01;;;;;;;17.40;12.30;;;;;;;13.46;75.81;101546.23;105817;1267;63092;-77
2022/10/31 09:54:52;;;;;;;14.40;10.50;;;;;;;13.39;75.81;101542.89;106057;1263;57808;-75
2022/10/31 09:57:34;;;;;;;18.50;10.90;;;;;;;13.44;76.41;101545.88;106014;1264;62871;-74
2022/10/31 10:00:06;;;;;;;14.90;10.80;;;;;;;13.64;76.34;101549.73;105778;1270;70314;-75
2022/10/31 10:02:49;;;;;;;19.80;12.00;;;;;;;13.73;75.37;101545.02;105824;1258;71119;-74
2022/10/31 10:05:32;;;;;;;15.50;10.00;;;;;;;13.77;74.58;101546.10;105773;1272;74216;-72
2022/10/31 10:08:07;;;;;;;16.50;10.50;;;;;;;13.86;74.16;101545.52;105803;1267;63054;-74
2022/10/31 10:11:21;;;;;;;;;;;;;;;14.00;74.89;101545.86;105789;1272;57476;-73
2022/10/31 10:15:09;;;;;;;17.20;9.90;;;;;;;14.31;73.65;101543.38;105705;1267;73574;-75
2022/10/31 10:18:39;;;;;;;16.20;9.90;;;;;;;14.66;71.37;101549.33;105428;1269;62248;-75
2022/10/31 10:22:08;;;;;;;15.00;9.10;;;;;;;14.89;69.58;101552.83;105898;1267;59551;-74
2022/10/31 10:25:15;;;;;;;14.00;8.60;;;;;;;15.12;68.56;101545.05;105679;1267;62790;-75
2022/10/31 10:28:10;;;;;;;14.00;9.60;;;;;;;15.28;66.03;101550.30;105628;1267;60814;-75
2022/10/31 10:30:46;;;;;;;14.70;9.40;;;;;;;15.02;66.59;101547.62;105756;1267;61054;-73
2022/10/31 10:33:33;;;;;;;14.30;9.20;;;;;;;15.21;66.06;101547.88;105677;1269;63037;-73
2022/10/31 10:36:17;;;;;;;13.10;9.20;;;;;;;15.37;65.90;101541.52;105775;1267;72400;-75
2022/10/31 10:39:08;;;;;;;14.10;9.40;;;;;;;15.48;65.51;101539.45;105655;1263;70943;-75
2022/10/31 10:41:38;;;;;;;14.40;9.00;;;;;;;15.55;65.18;101542.89;105909;1264;63676;-74
2022/10/31 10:47:37;;;;;;;12.80;8.90;;;;;;;15.86;63.89;101538.45;105739;1272;60608;-81
2022/10/31 10:50:33;;;;;;;13.30;8.30;;;;;;;15.81;63.35;101537.69;105743;1280;62103;-73
2022/10/31 10:54:01;;;;;;;13.70;8.20;;;;;;;15.91;63.35;101532.16;104890;1271;61228;-75
2022/10/31 10:56:56;;;;;;;13.00;8.60;;;;;;;16.31;62.63;101525.63;105492;1273;70886;-72
2022/10/31 10:59:23;;;;;;;12.00;8.60;;;;;;;16.50;61.84;101522.99;104954;1275;63497;-73
2022/10/31 11:01:52;;;;;;;14.60;8.50;;;;;;;16.69;61.35;101521.73;104927;1280;60946;-74
2022/10/31 11:04:29;;;;;;;12.60;8.10;;;;;;;16.78;60.98;101519.18;104906;1278;59278;-75
2022/10/31 11:07:12;;;;;;;12.00;7.60;;;;;;;16.77;60.12;101520.34;104944;1275;62958;-73
2022/10/31 11:09:39;;;;;;;9.90;7.30;;;;;;;16.90;58.87;101511.98;104747;1280;61066;-73
2022/10/31 11:12:35;;;;;;;10.90;7.00;;;;;;;17.21;57.91;101511.63;104856;1280;70128;-74
2022/10/31 11:15:22;;;;;;;14.00;7.50;;;;;;;17.01;58.25;101509.48;104788;1284;64045;-75
2022/10/31 11:17:56;;;;;;;10.10;7.20;;;;;;;17.08;58.37;101500.98;104819;1275;60908;-75
2022/10/31 11:20:35;;;;;;;10.40;6.60;;;;;;;17.21;57.57;101501.71;104983;1282;57923;-75
2022/10/31 11:23:25;;;;;;;10.10;6.60;;;;;;;17.49;56.67;101496.10;105002;1268;73062;-75
2022/10/31 11:26:06;;;;;;;11.10;6.70;;;;;;;17.53;55.41;101506.27;104939;1270;71704;-75
2022/10/31 11:28:36;;;;;;;11.00;7.40;;;;;;;17.61;54.67;101502.77;105305;1278;59776;-78
2022/10/31 11:31:15;;;;;;;10.30;6.20;;;;;;;17.50;55.67;101499.02;105574;1281;72282;-80
2022/10/31 11:38:06;;;;;;;11.30;6.90;;;;;;;17.63;55.13;101486.04;105505;1276;57886;-82
2022/10/31 11:40:59;;;;;;;10.20;6.40;;;;;;;17.83;53.56;101490.05;105814;1273;73466;-81
2022/10/31 11:44:35;;;;;;;;;;;;;;;17.98;52.94;101489.04;105791;1281;71287;-82
2022/10/31 11:47:06;;;;;;;10.10;6.20;;;;;;;17.83;53.07;101487.46;105605;1281;59315;-82
2022/10/31 11:50:39;;;;;;;10.90;6.80;;;;;;;17.93;52.86;101485.33;105908;1286;63151;-82
2022/10/31 11:53:37;;;;;;;9.60;6.80;;;;;;;17.94;52.80;101487.64;106076;1278;58040;-82
2022/10/31 11:56:06;;;;;;;12.00;6.70;;;;;;;17.93;52.59;101492.70;105670;1273;57930;-81
2022/10/31 11:58:33;;;;;;;11.10;7.00;;;;;;;18.26;52.36;101488.55;105777;1287;63000;-81
2022/10/31 12:01:00;;;;;;;10.10;6.60;;;;;;;18.44;51.97;101485.35;105942;1281;61734;-81
2022/10/31 12:04:40;;;;;;;10.60;6.90;;;;;;;18.62;51.53;101487.31;105886;1277;69607;-82